Time;durP1;ratioP1;P1;durP2;ratioP2;P2;SDS_P1;SDS_P2;PMS_P1;PMS_P2;Temp;Humidity;BMP_temperature;BMP_pressure;BME280_temperature;BME280_humidity;BME280_pressure;Samples;Min_cycle;Max_cycle;Signal;HPM_P1;HPM_P2
2021/01/04 00:02:03;;;;;;;;;;;;;;;-0.54;100.00;100981.78;5053245;28;19925;-68
2021/01/04 00:04:55;;;;;;;;;;;;;;;-0.55;100.00;100978.25;5053301;28;19924;-68
2021/01/04 00:07:26;;;;;;;;;;;;;;;-0.54;100.00;100971.97;5053109;28;19963;-70
2021/01/04 00:10:01;;;;;;;;;;;;;;;-0.53;100.00;100970.22;5053235;28;20534;-70
2021/01/04 00:12:29;;;;;;;;;;;;;;;-0.53;100.00;100979.06;5053217;28;19931;-70
2021/01/04 00:15:01;;;;;;;;;;;;;;;-0.53;100.00;100971.06;5053054;28;19963;-70
2021/01/04 00:17:42;;;;;;;;;;;;;;;-0.53;100.00;100965.72;5052696;28;19925;-70
2021/01/04 00:20:12;;;;;;;;;;;;;;;-0.52;100.00;100966.63;5052864;28;20335;-70
2021/01/04 00:22:43;;;;;;;;;;;;;;;-0.52;100.00;100964.81;5052994;28;20401;-70
2021/01/04 00:25:13;;;;;;;;;;;;;;;-0.52;100.00;100967.50;5052828;28;20011;-70
2021/01/04 00:27:42;;;;;;;;;;;;;;;-0.51;100.00;100971.00;5052673;28;20015;-70
2021/01/04 00:30:10;;;;;;;;;;;;;;;-0.48;100.00;100975.38;5052689;28;20024;-70
2021/01/04 00:32:36;;;;;;;;;;;;;;;-0.48;100.00;100980.72;5052706;28;19964;-70
2021/01/04 00:35:09;;;;;;;;;;;;;;;-0.49;100.00;100976.28;5051101;28;19932;-69
2021/01/04 00:40:33;;;;;;;;;;;;;;;-0.48;100.00;100975.38;5109456;27;20457;-69
2021/01/04 00:42:59;;;;;;;;;;;;;;;-0.48;100.00;100970.03;5109323;28;19970;-68
2021/01/04 00:45:26;;;;;;;;;;;;;;;-0.46;100.00;100973.56;5109458;28;20003;-68
2021/01/04 00:47:59;;;;;;;;;;;;;;;-0.48;100.00;100970.03;5109204;28;19924;-68
2021/01/04 00:50:34;;;;;;;;;;;;;;;-0.47;100.00;100979.81;5109309;28;19924;-68
2021/01/04 00:53:03;;;;;;;;;;;;;;;-0.47;100.00;100970.00;5108851;28;20010;-68
2021/01/04 00:55:39;;;;;;;;;;;;;;;-0.48;100.00;100970.94;5109304;28;20448;-68
2021/01/04 00:58:19;;;;;;;;;;;;;;;-0.47;100.00;100972.66;5109103;28;20023;-68
2021/01/04 01:00:50;;;;;;;;;;;;;;;-0.46;100.00;100981.56;5109011;28;20019;-68
2021/01/04 01:03:20;;;;;;;;;;;;;;;-0.47;100.00;100979.81;5109030;28;19932;-68
2021/01/04 01:05:55;;;;;;;;;;;;;;;-0.47;100.00;100977.13;5109084;28;19965;-69
2021/01/04 01:08:23;;;;;;;;;;;;;;;-0.49;100.00;100984.28;5108798;28;20030;-70
2021/01/04 01:10:52;;;;;;;;;;;;;;;-0.49;100.00;100977.19;5109055;28;19960;-70
2021/01/04 01:13:29;;;;;;;;;;;;;;;-0.49;100.00;100982.53;5109320;28;20077;-70
2021/01/04 01:16:05;;;;;;;;;;;;;;;-0.49;100.00;100981.63;5108711;28;20015;-71
2021/01/04 01:18:36;;;;;;;;;;;;;;;-0.51;100.00;100977.25;5108805;28;20026;-70
2021/01/04 01:21:02;;;;;;;;;;;;;;;-0.51;100.00;100979.91;5108539;28;20011;-70
2021/01/04 01:23:28;;;;;;;;;;;;;;;-0.49;100.00;100978.97;5108670;28;20050;-70
2021/01/04 01:26:02;;;;;;;;;;;;;;;-0.50;100.00;100980.78;5108345;28;19924;-70
2021/01/04 01:28:51;;;;;;;;;;;;;;;-0.51;100.00;100974.56;5107157;28;19971;-70
2021/01/04 01:31:32;;;;;;;;;;;;;;;-0.51;100.00;100982.56;5108398;28;19970;-70
2021/01/04 01:34:10;;;;;;;;;;;;;;;-0.50;100.00;100970.09;5105900;28;19931;-70
2021/01/04 01:36:41;;;;;;;;;;;;;;;-0.49;100.00;100974.53;5108273;28;20018;-68
2021/01/04 01:39:37;;;;;;;;;;;;;;;-0.49;100.00;100976.28;5117745;28;20018;-69
2021/01/04 01:42:26;;;;;;;;;;;;;;;-0.51;100.00;100985.25;5128900;27;20400;-69
2021/01/04 01:44:56;;;;;;;;;;;;;;;-0.51;100.00;100977.25;5128588;28;19959;-69
2021/01/04 01:47:25;;;;;;;;;;;;;;;-0.50;100.00;100980.78;5128660;28;20982;-69
2021/01/04 01:49:57;;;;;;;;;;;;;;;-0.52;100.00;100983.50;5126305;28;19928;-69
2021/01/04 01:52:27;;;;;;;;;;;;;;;-0.51;100.00;100981.69;5114967;28;20017;-69
2021/01/04 01:55:12;;;;;;;;;;;;;;;-0.52;100.00;100978.16;5114853;28;19924;-69
2021/01/04 01:57:49;;;;;;;;;;;;;;;-0.51;100.00;100973.69;5114686;28;19959;-69
2021/01/04 02:00:18;;;;;;;;;;;;;;;-0.52;100.00;100974.63;5114509;28;19959;-68
2021/01/04 02:02:48;;;;;;;;;;;;;;;-0.52;100.00;100978.16;5113982;28;19968;-68
2021/01/04 02:05:18;;;;;;;;;;;;;;;-0.53;100.00;100968.41;5114709;28;19931;-69
2021/01/04 02:07:49;;;;;;;;;;;;;;;-0.51;100.00;100976.34;5114605;28;19958;-69
2021/01/04 02:10:16;;;;;;;;;;;;;;;-0.51;100.00;100973.69;5114526;28;20393;-68
2021/01/04 02:12:47;;;;;;;;;;;;;;;-0.53;100.00;100979.06;5114534;28;19950;-68
2021/01/04 02:15:15;;;;;;;;;;;;;;;-0.52;100.00;100975.50;5114548;28;20007;-69
2021/01/04 02:17:58;;;;;;;;;;;;;;;-0.49;100.00;100978.97;5114068;28;20014;-69
2021/01/04 02:20:36;;;;;;;;;;;;;;;-0.50;100.00;100983.44;5114160;28;20014;-69
2021/01/04 02:23:17;;;;;;;;;;;;;;;-0.49;100.00;100978.97;5114345;28;19947;-70
2021/01/04 02:25:46;;;;;;;;;;;;;;;-0.49;100.00;100978.97;5114098;28;19986;-69
2021/01/04 02:28:14;;;;;;;;;;;;;;;-0.49;100.00;100978.97;5114070;28;20019;-69
2021/01/04 02:30:40;;;;;;;;;;;;;;;-0.49;100.00;100990.53;5114227;28;20488;-68
2021/01/04 02:33:08;;;;;;;;;;;;;;;-0.48;100.00;100983.38;5114028;28;20026;-69
2021/01/04 02:35:36;;;;;;;;;;;;;;;-0.48;100.00;100980.72;5113778;28;20406;-70
2021/01/04 02:38:02;;;;;;;;;;;;;;;-0.47;100.00;100987.81;5113963;28;19985;-70
2021/01/04 02:40:28;;;;;;;;;;;;;;;-0.49;100.00;100979.84;5113895;28;20326;-70
2021/01/04 02:42:54;;;;;;;;;;;;;;;-0.47;100.00;100977.13;5113905;28;20397;-69
2021/01/04 02:45:22;;;;;;;;;;;;;;;-0.47;100.00;100974.47;5113827;28;19931;-69
2021/01/04 02:47:57;;;;;;;;;;;;;;;-0.49;100.00;100970.97;5113851;28;20075;-69
2021/01/04 02:50:35;;;;;;;;;;;;;;;-0.48;100.00;100976.28;5113702;28;20384;-69
2021/01/04 02:53:07;;;;;;;;;;;;;;;-0.48;100.00;100978.94;5113865;27;20432;-69
2021/01/04 02:55:39;;;;;;;;;;;;;;;-0.48;100.00;100976.28;5113370;28;19984;-68
2021/01/04 02:58:10;;;;;;;;;;;;;;;-0.49;100.00;100969.19;5113690;28;19963;-69
2021/01/04 03:00:38;;;;;;;;;;;;;;;-0.47;100.00;100971.81;5113498;28;19997;-69
2021/01/04 03:03:05;;;;;;;;;;;;;;;-0.46;100.00;100974.41;5112499;28;20512;-69
2021/01/04 03:05:31;;;;;;;;;;;;;;;-0.46;100.00;100985.09;5113506;28;20011;-69
2021/01/04 03:07:58;;;;;;;;;;;;;;;-0.48;100.00;100975.38;5113384;28;19923;-69
2021/01/04 03:10:27;;;;;;;;;;;;;;;-0.47;100.00;100988.66;5113251;28;19952;-69
2021/01/04 03:13:01;;;;;;;;;;;;;;;-0.46;100.00;100982.41;5113286;28;19930;-69
2021/01/04 03:15:33;;;;;;;;;;;;;;;-0.46;100.00;100981.56;5113191;28;19951;-69
2021/01/04 03:18:06;;;;;;;;;;;;;;;-0.47;100.00;100980.66;5112070;28;19923;-69
2021/01/04 03:20:32;;;;;;;;;;;;;;;-0.45;100.00;100981.50;5113142;28;20014;-69
2021/01/04 03:22:58;;;;;;;;;;;;;;;-0.46;100.00;100981.56;5113159;28;19923;-69
2021/01/04 03:25:30;;;;;;;;;;;;;;;-0.45;100.00;100989.50;5113038;28;19984;-69
2021/01/04 03:27:56;;;;;;;;;;;;;;;-0.46;100.00;100985.09;5113046;28;20014;-69
2021/01/04 03:30:23;;;;;;;;;;;;;;;-0.47;100.00;100990.47;5112716;28;19978;-69
2021/01/04 03:32:50;;;;;;;;;;;;;;;-0.47;100.00;100987.81;5112893;28;19984;-69
2021/01/04 03:35:15;;;;;;;;;;;;;;;-0.46;100.00;100989.56;5112926;28;20022;-69
2021/01/04 03:37:41;;;;;;;;;;;;;;;-0.47;100.00;100987.81;5112692;28;19924;-69
2021/01/04 03:40:08;;;;;;;;;;;;;;;-0.48;100.00;100994.06;5112532;28;19924;-69
2021/01/04 03:42:34;;;;;;;;;;;;;;;-0.50;100.00;100978.09;5112777;28;20476;-69
2021/01/04 03:44:59;;;;;;;;;;;;;;;-0.48;100.00;100994.94;5112813;28;19959;-69
2021/01/04 03:47:25;;;;;;;;;;;;;;;-0.49;100.00;100990.53;5112485;28;20279;-69
2021/01/04 03:49:52;;;;;;;;;;;;;;;-0.48;100.00;100994.06;5112384;28;19924;-69
2021/01/04 03:52:18;;;;;;;;;;;;;;;-0.48;100.00;100992.28;5112543;28;20497;-69
2021/01/04 03:54:44;;;;;;;;;;;;;;;-0.51;100.00;100990.56;5112238;28;20052;-69
2021/01/04 03:57:10;;;;;;;;;;;;;;;-0.49;100.00;100992.28;5112283;28;19928;-70
2021/01/04 03:59:36;;;;;;;;;;;;;;;-0.49;100.00;100989.63;5112431;28;19931;-70
2021/01/04 04:02:02;;;;;;;;;;;;;;;-0.49;100.00;100986.97;5112385;28;20438;-71
2021/01/04 04:04:28;;;;;;;;;;;;;;;-0.51;100.00;100982.56;5112477;28;19974;-70
2021/01/04 04:06:54;;;;;;;;;;;;;;;-0.50;100.00;100986.09;5111871;28;19954;-70
2021/01/04 04:09:21;;;;;;;;;;;;;;;-0.51;100.00;100976.34;5112227;28;19935;-70
2021/01/04 04:11:47;;;;;;;;;;;;;;;-0.50;100.00;100986.09;5112372;28;19962;-70
2021/01/04 04:14:13;;;;;;;;;;;;;;;-0.49;100.00;100984.28;5111973;28;20381;-70
2021/01/04 04:16:39;;;;;;;;;;;;;;;-0.50;100.00;100980.78;5112046;28;20016;-70
2021/01/04 04:19:05;;;;;;;;;;;;;;;-0.49;100.00;100981.63;5112085;28;20010;-70
2021/01/04 04:21:31;;;;;;;;;;;;;;;-0.49;100.00;100981.63;5112054;28;20393;-70
2021/01/04 04:23:58;;;;;;;;;;;;;;;-0.51;100.00;100982.56;5111919;28;19924;-70
2021/01/04 04:26:26;;;;;;;;;;;;;;;-0.51;100.00;100976.34;5111823;28;20030;-70
2021/01/04 04:28:52;;;;;;;;;;;;;;;-0.52;100.00;100978.16;5113144;28;19959;-70
2021/01/04 04:31:18;;;;;;;;;;;;;;;-0.51;100.00;100979.00;5112650;28;20015;-71
2021/01/04 04:33:45;;;;;;;;;;;;;;;-0.52;100.00;100972.81;5112090;28;19923;-70
2021/01/04 04:36:15;;;;;;;;;;;;;;;-0.53;100.00;100975.53;5111813;28;19974;-70
2021/01/04 04:38:41;;;;;;;;;;;;;;;-0.53;100.00;100972.88;5111825;28;20010;-70
2021/01/04 04:41:09;;;;;;;;;;;;;;;-0.54;100.00;100976.44;5111844;28;19924;-70
2021/01/04 04:43:37;;;;;;;;;;;;;;;-0.55;100.00;100970.25;5111656;28;19966;-70
2021/01/04 04:46:06;;;;;;;;;;;;;;;-0.54;100.00;100971.97;5111737;28;19955;-70
2021/01/04 04:48:37;;;;;;;;;;;;;;;-0.57;100.00;100977.41;5110617;28;19955;-70
2021/01/04 04:51:09;;;;;;;;;;;;;;;-0.58;100.00;100972.13;5111757;28;20042;-70
2021/01/04 04:53:43;;;;;;;;;;;;;;;-0.58;100.00;100975.66;5111812;28;20440;-70
2021/01/04 04:56:21;;;;;;;;;;;;;;;-0.59;100.00;100981.06;5111661;28;20027;-70
2021/01/04 04:58:53;;;;;;;;;;;;;;;-0.58;100.00;100980.13;5111811;28;19923;-70
2021/01/04 05:01:23;;;;;;;;;;;;;;;-0.60;100.00;100979.28;5111625;28;19924;-70
2021/01/04 05:03:57;;;;;;;;;;;;;;;-0.58;100.00;100974.81;5110656;28;20019;-70
2021/01/04 05:06:28;;;;;;;;;;;;;;;-0.62;100.00;100976.69;5111564;28;19969;-70
2021/01/04 05:09:06;;;;;;;;;;;;;;;-0.62;100.00;100982.00;5111732;28;19959;-70
2021/01/04 05:11:34;;;;;;;;;;;;;;;-0.62;100.00;100984.69;5111639;28;19955;-70
2021/01/04 05:14:02;;;;;;;;;;;;;;;-0.62;100.00;100982.00;5111556;28;19936;-70
2021/01/04 05:16:37;;;;;;;;;;;;;;;-0.61;100.00;100988.25;5111364;28;19931;-70
2021/01/04 05:19:21;;;;;;;;;;;;;;;-0.60;100.00;100993.53;5110906;28;20376;-70
2021/01/04 05:22:20;;;;;;;;;;;;;;;-0.61;100.00;100981.09;5111460;28;20019;-70
2021/01/04 05:24:53;;;;;;;;;;;;;;;-0.62;100.00;100990.00;5111520;28;19928;-70
2021/01/04 05:27:29;;;;;;;;;;;;;;;-0.61;100.00;100983.78;5114969;28;20400;-70
2021/01/04 05:30:02;;;;;;;;;;;;;;;-0.61;100.00;100986.44;5115104;28;19963;-70
2021/01/04 05:32:40;;;;;;;;;;;;;;;-0.61;100.00;100986.44;5115098;28;20320;-71
2021/01/04 05:35:08;;;;;;;;;;;;;;;-0.60;100.00;100985.53;5114949;28;19963;-70
2021/01/04 05:37:38;;;;;;;;;;;;;;;-0.58;100.00;100982.81;5113020;28;20010;-70
2021/01/04 05:40:21;;;;;;;;;;;;;;;-0.58;100.00;100989.00;5094464;28;19960;-68
2021/01/04 05:42:53;;;;;;;;;;;;;;;-0.58;100.00;100997.00;5094287;28;19963;-70
2021/01/04 05:45:23;;;;;;;;;;;;;;;-0.55;100.00;100996.03;5094063;28;20644;-69
2021/01/04 05:47:59;;;;;;;;;;;;;;;-0.56;100.00;101000.50;5094523;28;20449;-68
2021/01/04 05:50:27;;;;;;;;;;;;;;;-0.55;100.00;100994.25;5093970;28;20032;-68
2021/01/04 05:52:54;;;;;;;;;;;;;;;-0.56;100.00;101003.19;5094190;28;20022;-68
2021/01/04 05:55:21;;;;;;;;;;;;;;;-0.53;100.00;100994.22;5093977;28;20010;-69
2021/01/04 05:57:47;;;;;;;;;;;;;;;-0.55;100.00;100996.03;5094046;28;19959;-68
2021/01/04 06:00:25;;;;;;;;;;;;;;;-0.54;100.00;100995.97;5094034;28;20015;-68
2021/01/04 06:02:51;;;;;;;;;;;;;;;-0.55;100.00;100993.38;5109044;28;19938;-69
2021/01/04 06:05:17;;;;;;;;;;;;;;;-0.54;100.00;100995.13;5113788;28;19932;-67
2021/01/04 06:07:45;;;;;;;;;;;;;;;-0.55;100.00;100996.94;5114092;28;20002;-68
2021/01/04 06:10:18;;;;;;;;;;;;;;;-0.57;100.00;100998.75;5108591;28;20043;-69
2021/01/04 06:12:45;;;;;;;;;;;;;;;-0.57;100.00;100997.91;5106142;28;19924;-69
2021/01/04 06:15:11;;;;;;;;;;;;;;;-0.56;100.00;100995.19;5101222;28;19924;-68
2021/01/04 06:17:39;;;;;;;;;;;;;;;-0.57;100.00;100992.56;5093785;28;20019;-68
2021/01/04 06:20:17;;;;;;;;;;;;;;;-0.58;100.00;100993.47;5104706;28;20014;-68
2021/01/04 06:22:43;;;;;;;;;;;;;;;-0.58;100.00;100999.66;5112929;28;20022;-68
2021/01/04 06:25:09;;;;;;;;;;;;;;;-0.58;100.00;100993.47;5113308;28;20343;-69
2021/01/04 06:27:37;;;;;;;;;;;;;;;-0.55;100.00;101001.38;5108784;28;20339;-69
2021/01/04 06:30:14;;;;;;;;;;;;;;;-0.55;100.00;101007.59;5093620;28;19939;-69
2021/01/04 06:32:41;;;;;;;;;;;;;;;-0.55;100.00;100996.03;5103645;28;19971;-69
2021/01/04 06:35:18;;;;;;;;;;;;;;;-0.55;100.00;101001.38;5113957;28;19959;-69
2021/01/04 06:37:44;;;;;;;;;;;;;;;-0.54;100.00;101005.78;5101111;28;20089;-69
2021/01/04 06:40:25;;;;;;;;;;;;;;;-0.54;100.00;101003.13;5103929;28;20580;-69
2021/01/04 06:42:51;;;;;;;;;;;;;;;-0.53;100.00;101008.41;5110281;28;20412;-69
2021/01/04 06:45:19;;;;;;;;;;;;;;;-0.54;100.00;101009.31;5105383;28;19929;-69
2021/01/04 06:47:48;;;;;;;;;;;;;;;-0.55;100.00;101007.59;5113245;28;20019;-69
2021/01/04 06:50:19;;;;;;;;;;;;;;;-0.53;100.00;101004.88;5106947;28;19974;-69
2021/01/04 06:53:08;;;;;;;;;;;;;;;-0.55;100.00;101006.69;5099976;28;20020;-69
2021/01/04 06:55:49;;;;;;;;;;;;;;;-0.57;100.00;101009.41;5094760;28;20018;-69
2021/01/04 06:58:30;;;;;;;;;;;;;;;-0.55;100.00;101010.25;5036711;28;20297;-69
2021/01/04 07:01:02;;;;;;;;;;;;;;;-0.56;100.00;101013.84;5096181;28;19974;-69
2021/01/04 07:03:41;;;;;;;;;;;;;;;-0.58;100.00;101023.66;5108096;28;20030;-68
2021/01/04 07:06:12;;;;;;;;;;;;;;;-0.57;100.00;101009.41;5107326;28;20362;-68
2021/01/04 07:08:49;;;;;;;;;;;;;;;-0.56;100.00;101016.50;5091979;28;20027;-69
2021/01/04 07:11:22;;;;;;;;;;;;;;;-0.56;100.00;101016.50;5092954;28;19974;-68
2021/01/04 07:13:57;;;;;;;;;;;;;;;-0.57;100.00;101021.91;5092989;28;20365;-69
2021/01/04 07:16:38;;;;;;;;;;;;;;;-0.57;100.00;101024.56;5111333;28;19930;-69
2021/01/04 07:19:15;;;;;;;;;;;;;;;-0.55;100.00;101023.59;5106089;28;19963;-68
2021/01/04 07:21:43;;;;;;;;;;;;;;;-0.55;100.00;101031.59;5111000;28;20381;-69
2021/01/04 07:24:33;;;;;;;;;;;;;;;-0.55;100.00;101028.94;5092484;28;19931;-69
2021/01/04 07:27:03;;;;;;;;;;;;;;;-0.54;100.00;101022.66;5081008;28;19924;-69
2021/01/04 07:29:36;;;;;;;;;;;;;;;-0.54;100.00;101019.13;5112731;28;20388;-69
2021/01/04 07:32:04;;;;;;;;;;;;;;;-0.54;100.00;101028.00;5112104;28;20007;-69
2021/01/04 07:34:34;;;;;;;;;;;;;;;-0.52;100.00;101028.84;5101428;28;19924;-69
2021/01/04 07:37:07;;;;;;;;;;;;;;;-0.53;100.00;101029.75;5093210;28;19924;-68
2021/01/04 07:39:38;;;;;;;;;;;;;;;-0.51;100.00;101033.25;5091991;28;20015;-70
2021/01/04 07:42:22;;;;;;;;;;;;;;;-0.48;100.00;101036.72;5098161;28;19956;-69
2021/01/04 07:45:09;;;;;;;;;;;;;;;-0.49;100.00;101033.19;5112840;28;19924;-69
2021/01/04 07:47:54;;;;;;;;;;;;;;;-0.45;100.00;101040.19;5098944;28;20023;-68
2021/01/04 07:50:52;;;;;;;;;;;;;;;-0.44;100.00;101038.38;5098463;28;19928;-69
2021/01/04 07:53:32;;;;;;;;;;;;;;;-0.41;100.00;101035.63;5095300;27;19932;-69
2021/01/04 07:56:10;;;;;;;;;;;;;;;-0.37;100.00;101039.97;5095423;28;20042;-69
2021/01/04 07:58:48;;;;;;;;;;;;;;;-0.37;100.00;101047.97;5117785;27;20018;-69
2021/01/04 08:01:32;;;;;;;;;;;;;;;-0.36;100.00;101039.00;5111630;28;20019;-69
2021/01/04 08:04:16;;;;;;;;;;;;;;;-0.29;100.00;101047.72;5111396;28;19970;-68
2021/01/04 08:06:54;;;;;;;;;;;;;;;-0.27;100.00;101043.19;5092380;28;19964;-68
2021/01/04 08:09:25;;;;;;;;;;;;;;;-0.21;100.00;101041.22;5091714;28;19963;-68
2021/01/04 08:11:55;;;;;;;;;;;;;;;-0.13;100.00;101050.75;5091570;28;20022;-68
2021/01/04 08:14:45;;;;;;;;;;;;;;;-0.10;100.00;101051.56;5093984;28;19939;-68
2021/01/04 08:17:13;;;;;;;;;;;;;;;-0.11;100.00;101048.94;5099154;28;19975;-69
2021/01/04 08:19:40;;;;;;;;;;;;;;;-0.04;100.00;101050.47;5093900;28;19924;-68
2021/01/04 08:22:16;;;;;;;;;;;;;;;-0.01;100.00;101050.41;5098123;28;20010;-68
2021/01/04 08:24:43;;;;;;;;;;;;;;;0.07;100.00;101048.34;5090461;28;19952;-68
2021/01/04 08:27:17;;;;;;;;;;;;;;;0.09;100.00;101054.50;5104331;28;19970;-68
2021/01/04 08:29:47;;;;;;;;;;;;;;;0.11;100.00;101057.16;5111896;28;20022;-68
2021/01/04 08:32:17;;;;;;;;;;;;;;;0.08;100.00;101060.78;5108786;28;19967;-68
2021/01/04 08:34:44;;;;;;;;;;;;;;;0.08;100.00;101055.44;5101378;28;20415;-68
2021/01/04 08:37:11;;;;;;;;;;;;;;;0.08;100.00;101063.44;5111595;28;19977;-68
2021/01/04 08:39:40;;;;;;;;;;;;;;;0.05;100.00;101062.66;5094667;28;19952;-68
2021/01/04 08:42:21;;;;;;;;;;;;;;;0.04;100.00;101058.25;5098452;28;19924;-68
2021/01/04 08:44:58;;;;;;;;;;;;;;;0.05;100.00;101068.88;5111561;28;20464;-68
2021/01/04 08:47:29;;;;;;;;;;;;;;;0.06;100.00;101065.28;5110684;28;20047;-68
2021/01/04 08:50:02;;;;;;;;;;;;;;;0.04;100.00;101068.94;5110218;28;20003;-68
2021/01/04 08:52:39;;;;;;;;;;;;;;;0.01;100.00;101072.56;5099757;28;20339;-68
2021/01/04 08:55:06;;;;;;;;;;;;;;;0.01;100.00;101069.03;5104985;28;19963;-68
2021/01/04 08:57:38;;;;;;;;;;;;;;;-0.01;100.00;101072.63;5110968;28;19967;-69
2021/01/04 09:00:15;;;;;;;;;;;;;;;-0.03;100.00;101076.25;5103043;28;19959;-69
2021/01/04 09:02:42;;;;;;;;;;;;;;;0.01;100.00;101071.69;5114894;28;20000;-69
2021/01/04 09:05:10;;;;;;;;;;;;;;;0.01;100.00;101069.03;5115631;28;20388;-69
2021/01/04 09:07:46;;;;;;;;;;;;;;;0.01;100.00;101067.22;5098637;28;20032;-69
2021/01/04 09:10:15;;;;;;;;;;;;;;;0.00;100.00;101073.50;5102067;28;19959;-68
2021/01/04 09:12:42;;;;;;;;;;;;;;;-0.02;100.00;101078.88;5102218;28;19959;-69
2021/01/04 09:15:11;;;;;;;;;;;;;;;-0.03;100.00;101069.13;5108623;28;19966;-68
2021/01/04 09:17:45;;;;;;;;;;;;;;;-0.04;100.00;101071.81;5109435;28;20019;-68
2021/01/04 09:20:42;;;;;;;;;;;;;;;-0.06;100.00;101079.88;5102654;28;20121;-68
2021/01/04 09:23:11;;;;;;;;;;;;;;;-0.03;100.00;101073.59;5058808;28;20011;-68
2021/01/04 09:25:45;;;;;;;;;;;;;;;-0.01;100.00;101077.97;5100439;28;19928;-68
2021/01/04 09:28:13;;;;;;;;;;;;;;;-0.03;100.00;101071.81;5094731;28;20467;-68
2021/01/04 09:30:39;;;;;;;;;;;;;;;0.07;100.00;101074.19;5102422;28;20061;-68
2021/01/04 09:33:06;;;;;;;;;;;;;;;0.08;100.00;101073.25;5114144;28;19931;-67
2021/01/04 09:35:32;;;;;;;;;;;;;;;0.06;100.00;101072.44;5112581;28;19977;-68
2021/01/04 09:38:03;;;;;;;;;;;;;;;0.08;100.00;101076.81;5103646;28;19928;-67
2021/01/04 09:40:30;;;;;;;;;;;;;;;0.12;100.00;101075.78;5107186;28;19962;-68
2021/01/04 09:43:03;;;;;;;;;;;;;;;0.04;100.00;101077.81;5113410;28;20385;-68
2021/01/04 09:45:29;;;;;;;;;;;;;;;0.07;100.00;101080.38;5107862;28;19967;-67
2021/01/04 09:47:58;;;;;;;;;;;;;;;0.07;100.00;101085.72;5109568;28;20461;-67
2021/01/04 09:50:27;;;;;;;;;;;;;;;0.05;100.00;101078.69;5108479;28;20647;-68
2021/01/04 09:52:56;;;;;;;;;;;;;;;0.03;100.00;101078.75;5094402;28;20091;-68
2021/01/04 09:55:27;;;;;;;;;;;;;;;0.03;100.00;101078.75;5098727;28;20345;-68
2021/01/04 09:57:58;;;;;;;;;;;;;;;0.05;100.00;101081.34;5108973;28;20703;-68
2021/01/04 10:00:26;;;;;;;;;;;;;;;0.05;100.00;101079.53;5098925;28;19971;-68
2021/01/04 10:02:57;;;;;;;;;;;;;;;-0.01;100.00;101082.44;5112559;28;19932;-68
2021/01/04 10:05:26;;;;;;;;;;;;;;;0.05;100.00;101073.34;5112739;28;20540;-68
2021/01/04 10:07:52;;;;;;;;;;;;;;;0.08;100.00;101071.47;5103911;28;20289;-68
2021/01/04 10:10:19;;;;;;;;;;;;;;;0.19;100.00;101073.78;5095200;28;20381;-67
2021/01/04 10:12:45;;;;;;;;;;;;;;;0.20;100.00;101072.88;5097212;28;19959;-68
2021/01/04 10:15:18;;;;;;;;;;;;;;;0.21;100.00;101081.75;5109978;28;19927;-67
2021/01/04 10:17:45;;;;;;;;;;;;;;;0.22;100.00;101076.34;5113568;28;19924;-67
2021/01/04 10:20:31;;;;;;;;;;;;;;;0.26;100.00;101077.13;5114094;28;20015;-67
2021/01/04 10:22:58;;;;;;;;;;;;;;;0.24;100.00;101076.28;5087252;28;19951;-67
2021/01/04 10:25:28;;;;;;;;;;;;;;;0.26;100.00;101078.00;5114248;28;20010;-68
2021/01/04 10:27:55;;;;;;;;;;;;;;;0.27;100.00;101077.06;5113156;28;20363;-67
2021/01/04 10:30:24;;;;;;;;;;;;;;;0.21;100.00;101079.06;5104277;28;19951;-67
2021/01/04 10:33:00;;;;;;;;;;;;;;;0.20;100.00;101067.53;5092404;28;19931;-68
2021/01/04 10:35:26;;;;;;;;;;;;;;;0.16;100.00;101064.06;5104503;28;20015;-67
2021/01/04 10:37:53;;;;;;;;;;;;;;;0.23;100.00;101063.84;5113644;28;19930;-67
2021/01/04 10:40:19;;;;;;;;;;;;;;;0.23;100.00;101061.19;5111241;28;19992;-67
2021/01/04 10:42:46;;;;;;;;;;;;;;;0.16;100.00;101058.72;5113548;28;19958;-68
2021/01/04 10:45:13;;;;;;;;;;;;;;;0.24;100.00;101061.16;5104615;28;19959;-69
2021/01/04 10:47:52;;;;;;;;;;;;;;;0.27;100.00;101062.84;5094221;28;19924;-67
2021/01/04 10:50:20;;;;;;;;;;;;;;;0.26;100.00;101061.97;5101843;28;20403;-67
2021/01/04 10:52:53;;;;;;;;;;;;;;;0.20;100.00;101054.19;5105662;28;20358;-67
2021/01/04 10:55:20;;;;;;;;;;;;;;;0.21;100.00;101050.56;5102218;28;20017;-67
2021/01/04 10:57:49;;;;;;;;;;;;;;;0.24;100.00;101054.94;5104942;28;20014;-67
2021/01/04 11:00:17;;;;;;;;;;;;;;;0.24;100.00;101050.47;5095396;28;19978;-67
2021/01/04 11:02:44;;;;;;;;;;;;;;;0.21;100.00;101047.88;5104550;28;20365;-67
2021/01/04 11:05:11;;;;;;;;;;;;;;;0.09;100.00;101046.50;5111278;28;20011;-67
2021/01/04 11:07:37;;;;;;;;;;;;;;;0.09;100.00;101053.63;5113045;28;20010;-68
2021/01/04 11:10:11;;;;;;;;;;;;;;;0.09;100.00;101051.81;5109782;28;20159;-67
2021/01/04 11:12:44;;;;;;;;;;;;;;;0.12;100.00;101056.19;5098981;28;19923;-67
2021/01/04 11:15:10;;;;;;;;;;;;;;;0.07;100.00;101053.69;5102813;28;19924;-68
2021/01/04 11:17:36;;;;;;;;;;;;;;;0.03;100.00;101052.03;5104821;28;19924;-67
2021/01/04 11:20:04;;;;;;;;;;;;;;;0.03;100.00;101051.16;5095235;28;20274;-67
2021/01/04 11:22:30;;;;;;;;;;;;;;;0.03;100.00;101049.38;5111497;28;20457;-68
2021/01/04 11:24:56;;;;;;;;;;;;;;;-0.01;100.00;101055.75;5112488;28;20031;-68
2021/01/04 11:27:22;;;;;;;;;;;;;;;-0.01;100.00;101053.06;5105707;28;19928;-68
2021/01/04 11:29:49;;;;;;;;;;;;;;;-0.02;100.00;101053.97;5092453;28;19924;-68
2021/01/04 11:32:15;;;;;;;;;;;;;;;-0.01;100.00;101058.41;5105963;28;19924;-67
2021/01/04 11:34:42;;;;;;;;;;;;;;;-0.03;100.00;101046.91;5100003;28;19928;-67
2021/01/04 11:37:08;;;;;;;;;;;;;;;-0.05;100.00;101043.41;5091276;28;20010;-67
2021/01/04 11:39:35;;;;;;;;;;;;;;;-0.07;100.00;101050.59;5101001;28;19924;-67
2021/01/04 11:42:01;;;;;;;;;;;;;;;-0.01;100.00;101045.06;5111287;28;20019;-67
2021/01/04 11:44:27;;;;;;;;;;;;;;;-0.01;100.00;101045.91;5111187;28;19928;-67
2021/01/04 11:46:53;;;;;;;;;;;;;;;-0.01;100.00;101043.25;5112380;28;20348;-67
2021/01/04 11:49:19;;;;;;;;;;;;;;;-0.05;100.00;101044.28;5109454;28;19928;-67
2021/01/04 11:51:45;;;;;;;;;;;;;;;-0.04;100.00;101038.03;5092624;28;19924;-68
2021/01/04 11:54:10;;;;;;;;;;;;;;;-0.06;100.00;101047.84;5097118;28;19931;-68
2021/01/04 11:56:37;;;;;;;;;;;;;;;-0.08;100.00;101048.81;5112005;28;20313;-68
2021/01/04 11:59:03;;;;;;;;;;;;;;;-0.11;100.00;101047.13;5111468;28;19969;-67
2021/01/04 12:01:29;;;;;;;;;;;;;;;-0.12;100.00;101041.84;5111984;28;19928;-67
2021/01/04 12:03:55;;;;;;;;;;;;;;;-0.14;100.00;101055.25;5111588;28;20320;-67
2021/01/04 12:06:21;;;;;;;;;;;;;;;-0.15;100.00;101045.47;5100486;28;19928;-67
2021/01/04 12:08:47;;;;;;;;;;;;;;;-0.13;100.00;101046.31;5091892;28;19925;-67
2021/01/04 12:11:12;;;;;;;;;;;;;;;-0.17;100.00;101034.84;5112043;28;19923;-67
2021/01/04 12:13:39;;;;;;;;;;;;;;;-0.15;100.00;101034.81;5101467;28;19963;-67
2021/01/04 12:16:05;;;;;;;;;;;;;;;-0.14;100.00;101043.72;5106933;28;20382;-67
2021/01/04 12:18:31;;;;;;;;;;;;;;;-0.19;100.00;101043.84;5111962;28;20014;-67
2021/01/04 12:20:57;;;;;;;;;;;;;;;-0.21;100.00;101043.88;5100518;28;19924;-67
2021/01/04 12:23:23;;;;;;;;;;;;;;;-0.22;100.00;101042.13;5107817;28;20682;-68
2021/01/04 12:25:49;;;;;;;;;;;;;;;-0.23;100.00;101045.75;5110129;28;19924;-67
2021/01/04 12:28:15;;;;;;;;;;;;;;;-0.22;100.00;101047.47;5111753;28;20457;-67
2021/01/04 12:30:41;;;;;;;;;;;;;;;-0.25;100.00;101052.91;5095539;28;20023;-67
2021/01/04 12:33:07;;;;;;;;;;;;;;;-0.23;100.00;101044.84;5091172;28;19974;-67
2021/01/04 12:35:34;;;;;;;;;;;;;;;-0.22;100.00;101044.81;5105369;28;19924;-68
2021/01/04 12:38:00;;;;;;;;;;;;;;;-0.21;100.00;101040.34;5104930;28;19952;-67
2021/01/04 12:40:29;;;;;;;;;;;;;;;-0.21;100.00;101043.88;5091102;28;20015;-67
2021/01/04 12:42:55;;;;;;;;;;;;;;;-0.21;100.00;101048.38;5110784;28;19928;-68
2021/01/04 12:45:21;;;;;;;;;;;;;;;-0.23;100.00;101040.41;5111331;28;19976;-68
2021/01/04 12:47:48;;;;;;;;;;;;;;;-0.25;100.00;101041.38;5096587;28;20010;-68
2021/01/04 12:50:14;;;;;;;;;;;;;;;-0.26;100.00;101039.63;5090922;28;20015;-68